Time;durP1;ratioP1;P1;durP2;ratioP2;P2;SDS_P1;SDS_P2;PMS_P1;PMS_P2;Temp;Humidity;BMP_temperature;BMP_pressure;BME280_temperature;BME280_humidity;BME280_pressure;Samples;Min_cycle;Max_cycle;Signal;HPM_P1;HPM_P2
2021/08/21 00:00:17;;;;;;;5.57;5.03;;;;;;;21.29;54.38;99476.13;5030947;28;20025;-50
2021/08/21 00:02:42;;;;;;;7.00;5.28;;;;;;;21.22;54.67;99467.94;5031201;28;20029;-48
2021/08/21 00:05:08;;;;;;;6.38;5.20;;;;;;;21.25;54.43;99483.00;5030453;28;20393;-54
2021/08/21 00:07:34;;;;;;;6.93;5.38;;;;;;;21.28;54.23;99480.72;5031157;28;20444;-52
2021/08/21 00:10:00;;;;;;;10.55;5.70;;;;;;;21.25;54.20;99475.69;5030452;28;20029;-53
2021/08/21 00:12:26;;;;;;;8.07;5.10;;;;;;;21.34;53.84;99474.47;5030861;28;20496;-55
2021/08/21 00:14:52;;;;;;;7.82;5.72;;;;;;;21.29;54.47;99466.06;5030694;28;20108;-53
2021/08/21 00:17:18;;;;;;;8.82;6.05;;;;;;;21.22;54.35;99457.06;5029819;28;20397;-52
2021/08/21 00:19:44;;;;;;;10.85;5.57;;;;;;;20.99;54.33;99422.81;5031370;28;20032;-55
2021/08/21 00:22:09;;;;;;;9.80;5.15;;;;;;;21.12;54.80;99448.41;5047267;28;20453;-55
2021/08/21 00:24:35;;;;;;;9.90;5.43;;;;;;;21.06;55.42;99445.44;5048509;28;20032;-50
2021/08/21 00:27:06;;;;;;;10.98;5.47;;;;;;;20.91;55.29;99444.75;5048989;28;20033;-54
2021/08/21 00:29:32;;;;;;;10.07;5.40;;;;;;;20.86;55.76;99442.66;5049696;28;20102;-55
2021/08/21 00:32:10;;;;;;;9.43;5.45;;;;;;;20.92;55.70;99450.00;5048708;28;20037;-51
2021/08/21 00:34:36;;;;;;;12.55;5.95;;;;;;;20.83;55.75;99450.34;5050269;28;20029;-52
2021/08/21 00:37:01;;;;;;;9.57;5.78;;;;;;;20.79;56.23;99439.00;5050668;28;20165;-56
2021/08/21 00:39:26;;;;;;;8.77;5.78;;;;;;;20.79;56.44;99444.44;5053886;28;20033;-61
2021/08/21 00:41:52;;;;;;;11.63;5.50;;;;;;;20.73;56.51;99434.34;5041841;28;20025;-52
2021/08/21 00:44:17;;;;;;;10.40;6.10;;;;;;;20.63;57.10;99437.44;5034033;28;20076;-55
2021/08/21 00:47:06;;;;;;;9.73;5.95;;;;;;;20.72;56.80;99444.38;5034227;28;20501;-56
2021/08/21 00:49:33;;;;;;;6.65;5.05;;;;;;;20.55;57.26;99443.03;5033154;28;20064;-51
2021/08/21 00:52:04;;;;;;;10.93;5.13;;;;;;;20.60;57.37;99444.09;5033828;28;20529;-51
2021/08/21 00:54:29;;;;;;;7.63;5.78;;;;;;;20.48;57.96;99451.97;5033167;28;20512;-49
2021/08/21 00:56:56;;;;;;;7.10;5.35;;;;;;;20.47;58.05;99449.47;5033122;28;20112;-51
2021/08/21 00:59:22;;;;;;;5.57;4.90;;;;;;;20.40;57.99;99441.25;5049020;28;20503;-53
2021/08/21 01:01:48;;;;;;;7.65;5.10;;;;;;;20.27;58.56;99433.00;5053040;28;20037;-52
2021/08/21 01:04:14;;;;;;;6.15;5.03;;;;;;;20.36;58.88;99446.22;5053404;28;20033;-53
2021/08/21 01:06:39;;;;;;;6.82;5.10;;;;;;;20.33;58.78;99445.81;5053211;28;20449;-50
2021/08/21 01:09:06;;;;;;;7.25;5.22;;;;;;;20.35;58.71;99443.72;5052379;28;20039;-53
2021/08/21 01:11:32;;;;;;;6.75;4.82;;;;;;;20.31;58.67;99456.03;5051520;28;20040;-52
2021/08/21 01:13:59;;;;;;;8.48;4.90;;;;;;;20.29;58.72;99441.81;5052992;28;20568;-56
2021/08/21 01:16:24;;;;;;;5.85;4.70;;;;;;;20.25;58.67;99449.50;5053419;28;20032;-50
2021/08/21 01:18:50;;;;;;;6.30;4.60;;;;;;;20.21;58.62;99445.50;5051148;28;20028;-50
2021/08/21 01:21:16;;;;;;;7.10;4.75;;;;;;;20.15;58.80;99444.41;5052614;28;20036;-48
2021/08/21 01:23:42;;;;;;;6.88;4.28;;;;;;;20.13;59.19;99448.34;5052838;28;20037;-53
2021/08/21 01:26:11;;;;;;;11.45;4.72;;;;;;;20.11;58.90;99445.84;5053096;28;20078;-54
2021/08/21 01:28:37;;;;;;;7.35;4.70;;;;;;;20.04;58.87;99445.78;5050512;28;20021;-52
2021/08/21 01:31:04;;;;;;;7.85;3.97;;;;;;;20.04;58.65;99447.66;5052788;28;20386;-54
2021/08/21 01:33:31;;;;;;;5.70;4.47;;;;;;;19.98;58.33;99434.84;5052790;28;20068;-60
2021/08/21 01:35:56;;;;;;;7.57;4.35;;;;;;;19.93;58.29;99433.56;5052670;28;20043;-54
2021/08/21 01:38:22;;;;;;;6.55;3.97;;;;;;;19.94;58.17;99437.13;5051267;28;20025;-53
2021/08/21 01:40:52;;;;;;;5.22;3.78;;;;;;;20.00;57.65;99446.34;5050658;28;20511;-50
2021/08/21 01:43:19;;;;;;;5.53;3.63;;;;;;;19.94;57.96;99454.25;5032190;28;20038;-51
2021/08/21 01:45:44;;;;;;;4.00;3.60;;;;;;;19.93;57.64;99449.84;5032436;28;20033;-53
2021/08/21 01:48:11;;;;;;;5.63;3.70;;;;;;;19.78;57.90;99414.56;5031373;28;20048;-53
2021/08/21 01:50:37;;;;;;;5.25;3.80;;;;;;;19.93;57.75;99435.44;5032768;28;20477;-48
2021/08/21 01:53:04;;;;;;;4.97;3.20;;;;;;;19.94;57.02;99443.38;5033127;28;20026;-50
2021/08/21 01:55:29;;;;;;;3.78;3.30;;;;;;;19.94;56.88;99423.53;5032209;28;20107;-50
2021/08/21 01:57:55;;;;;;;6.28;3.65;;;;;;;19.89;56.94;99429.50;5032658;28;20113;-53
2021/08/21 02:00:27;;;;;;;4.80;2.97;;;;;;;19.87;56.14;99431.59;5032505;28;20344;-49
2021/08/21 02:02:56;;;;;;;6.25;3.63;;;;;;;19.84;56.28;99431.13;5032044;28;20031;-53
2021/08/21 02:05:22;;;;;;;4.50;3.20;;;;;;;19.83;56.06;99435.72;5032737;28;20060;-51
2021/08/21 02:07:48;;;;;;;6.13;2.97;;;;;;;19.81;55.72;99429.66;5032661;28;20052;-49
2021/08/21 02:10:17;;;;;;;4.68;2.70;;;;;;;19.82;55.62;99428.63;5032283;28;20413;-52
2021/08/21 02:12:42;;;;;;;3.92;2.88;;;;;;;19.83;55.50;99424.00;5031543;28;20032;-52
2021/08/21 02:15:14;;;;;;;4.57;2.60;;;;;;;19.89;55.11;99434.94;5032155;28;20034;-49
2021/08/21 02:17:39;;;;;;;4.60;2.80;;;;;;;19.85;54.90;99436.38;5033242;28;20022;-50
2021/08/21 02:20:11;;;;;;;5.00;2.70;;;;;;;19.87;54.20;99428.88;5032148;28;20030;-50
2021/08/21 02:22:41;;;;;;;3.60;2.38;;;;;;;19.89;54.03;99429.50;5031532;28;20460;-51
2021/08/21 02:25:08;;;;;;;4.72;2.40;;;;;;;19.90;54.03;99424.94;5031897;28;20466;-51
2021/08/21 02:27:38;;;;;;;3.22;2.35;;;;;;;19.95;53.04;99411.63;5032369;28;20049;-51
2021/08/21 02:30:05;;;;;;;5.03;2.55;;;;;;;19.92;52.97;99429.16;5032699;28;20466;-55
2021/08/21 02:32:31;;;;;;;4.75;2.22;;;;;;;19.98;53.17;99418.53;5031905;28;20038;-53
2021/08/21 02:34:56;;;;;;;2.10;1.88;;;;;;;20.01;52.34;99429.00;5031656;28;20077;-54
2021/08/21 02:37:22;;;;;;;4.60;2.10;;;;;;;20.03;51.95;99426.97;5032650;28;20118;-51
2021/08/21 02:39:47;;;;;;;5.05;1.90;;;;;;;20.01;51.78;99435.28;5030351;28;20041;-53
2021/08/21 02:42:13;;;;;;;4.07;2.45;;;;;;;20.01;51.84;99423.56;5031201;28;20489;-49
2021/08/21 02:44:39;;;;;;;4.03;2.30;;;;;;;20.00;51.59;99428.19;5031160;28;20045;-54
2021/08/21 02:47:05;;;;;;;4.43;2.05;;;;;;;20.02;51.76;99434.25;5031992;28;20458;-51
2021/08/21 02:49:32;;;;;;;5.05;2.20;;;;;;;20.06;51.02;99434.72;5032240;28;20486;-52
2021/08/21 02:51:57;;;;;;;5.32;2.15;;;;;;;20.05;51.12;99428.44;5031392;28;20083;-53
2021/08/21 02:54:23;;;;;;;4.68;2.03;;;;;;;20.07;50.34;99423.63;5030964;28;20041;-54
2021/08/21 02:56:48;;;;;;;4.50;2.30;;;;;;;20.06;50.83;99416.53;5032057;28;20041;-53
2021/08/21 02:59:14;;;;;;;5.55;2.22;;;;;;;20.10;50.80;99411.53;5047164;28;20025;-50
2021/08/21 03:01:39;;;;;;;3.85;2.30;;;;;;;20.13;50.57;99416.59;5049146;28;20082;-54
2021/08/21 03:04:05;;;;;;;4.15;1.77;;;;;;;20.16;50.01;99416.19;5050993;28;20086;-51
2021/08/21 03:06:30;;;;;;;3.40;1.92;;;;;;;20.06;50.29;99391.25;5051501;28;20025;-54
2021/08/21 03:08:55;;;;;;;5.82;1.90;;;;;;;20.24;49.57;99409.78;5049288;28;20035;-53
2021/08/21 03:11:21;;;;;;;4.38;2.20;;;;;;;20.31;50.10;99410.66;5051027;28;20028;-51
2021/08/21 03:13:46;;;;;;;4.25;1.80;;;;;;;20.35;49.51;99417.38;5051242;28;20392;-54
2021/08/21 03:16:12;;;;;;;3.30;2.03;;;;;;;20.23;49.81;99391.78;5051051;28;20091;-50
2021/08/21 03:18:37;;;;;;;2.00;1.80;;;;;;;20.40;49.33;99408.63;5032151;28;20045;-51
2021/08/21 03:21:03;;;;;;;2.83;1.85;;;;;;;20.42;49.36;99414.69;5030992;28;20029;-51
2021/08/21 03:23:29;;;;;;;3.90;1.50;;;;;;;20.43;48.87;99415.56;5031045;28;20044;-48
2021/08/21 03:25:54;;;;;;;3.97;1.83;;;;;;;20.42;48.97;99409.25;5030928;28;20041;-52
2021/08/21 03:28:19;;;;;;;5.50;1.88;;;;;;;20.42;48.72;99411.16;5031844;28;20082;-49
2021/08/21 03:30:45;;;;;;;3.67;1.60;;;;;;;20.38;49.04;99408.00;5031013;28;20465;-53
2021/08/21 03:33:10;;;;;;;4.47;1.80;;;;;;;20.35;48.90;99402.94;5030746;28;20477;-55
2021/08/21 03:35:36;;;;;;;2.60;1.80;;;;;;;20.39;49.01;99396.06;5031371;28;20021;-59
2021/08/21 03:38:02;;;;;;;7.63;1.63;;;;;;;20.33;48.72;99396.88;5046036;28;20127;-52
2021/08/21 03:40:28;;;;;;;3.35;2.08;;;;;;;20.35;48.92;99406.50;5051156;28;20404;-50
2021/08/21 03:42:53;;;;;;;4.47;1.80;;;;;;;20.36;48.77;99401.91;5051526;28;20108;-49
2021/08/21 03:45:19;;;;;;;3.70;1.80;;;;;;;20.41;48.77;99399.44;5051168;28;20032;-53
2021/08/21 03:47:46;;;;;;;4.05;1.73;;;;;;;20.47;48.57;99392.38;5042886;28;20092;-53
2021/08/21 03:50:12;;;;;;;3.80;1.67;;;;;;;20.48;48.67;99386.72;5030315;28;20045;-51
2021/08/21 03:52:38;;;;;;;4.97;1.40;;;;;;;20.59;48.30;99389.91;5031051;28;20113;-53
2021/08/21 03:55:04;;;;;;;4.95;1.58;;;;;;;20.63;47.69;99391.19;5031053;28;20581;-53
2021/08/21 03:57:30;;;;;;;3.22;1.42;;;;;;;20.67;47.74;99395.19;5044144;28;20459;-49
2021/08/21 03:59:55;;;;;;;2.35;1.42;;;;;;;20.68;48.00;99396.03;5029134;28;20056;-51
2021/08/21 04:02:21;;;;;;;4.18;1.73;;;;;;;20.66;48.32;99396.22;5029715;28;20112;-53
2021/08/21 04:04:46;;;;;;;4.40;1.60;;;;;;;20.57;48.10;99378.41;5031667;28;20029;-53
2021/08/21 04:07:16;;;;;;;2.25;1.60;;;;;;;20.68;48.20;99377.00;5030390;28;20052;-51
2021/08/21 04:09:42;;;;;;;2.67;1.40;;;;;;;20.71;48.10;99387.47;5029888;28;20030;-52
2021/08/21 04:12:08;;;;;;;5.10;1.50;;;;;;;20.70;48.02;99399.41;5032592;28;20033;-50
2021/08/21 04:14:33;;;;;;;4.18;1.52;;;;;;;20.68;48.66;99396.88;5034827;28;20067;-53
2021/08/21 04:16:59;;;;;;;4.50;1.50;;;;;;;20.65;48.60;99395.41;5033708;28;20041;-53
2021/08/21 04:19:24;;;;;;;2.55;1.70;;;;;;;20.67;48.33;99397.09;5034006;28;20030;-55
2021/08/21 04:21:50;;;;;;;2.33;1.40;;;;;;;20.66;48.59;99398.94;5034091;28;20113;-51
2021/08/21 04:24:15;;;;;;;2.45;1.80;;;;;;;20.70;48.22;99415.72;5035624;28;20112;-50
2021/08/21 04:26:40;;;;;;;2.78;1.63;;;;;;;20.69;48.49;99405.88;5033836;28;20469;-51
2021/08/21 04:29:06;;;;;;;5.53;1.45;;;;;;;20.68;48.38;99404.22;5033676;28;20034;-51
2021/08/21 04:31:31;;;;;;;4.22;1.65;;;;;;;20.53;48.62;99360.81;5034103;28;20045;-53
2021/08/21 04:33:57;;;;;;;6.30;1.55;;;;;;;20.72;48.47;99391.88;5034296;28;20326;-52
2021/08/21 04:36:22;;;;;;;3.78;1.58;;;;;;;20.83;48.49;99396.75;5034454;28;20091;-51
2021/08/21 04:38:48;;;;;;;2.47;1.70;;;;;;;20.91;47.80;99388.44;5033364;28;20119;-52
2021/08/21 04:41:13;;;;;;;3.08;1.33;;;;;;;20.99;48.27;99389.31;5034016;28;20030;-54
2021/08/21 04:43:39;;;;;;;4.72;1.80;;;;;;;21.15;47.82;99404.44;5034037;28;20199;-55
2021/08/21 04:46:04;;;;;;;2.83;1.65;;;;;;;21.26;47.45;99395.69;5033682;28;20072;-50
2021/08/21 04:48:30;;;;;;;4.65;1.73;;;;;;;21.39;47.39;99399.50;5037860;28;20072;-49
2021/08/21 04:50:55;;;;;;;2.10;1.50;;;;;;;21.54;47.31;99391.13;5033302;28;20042;-48
2021/08/21 04:53:21;;;;;;;1.95;1.75;;;;;;;21.65;46.40;99394.13;5033526;28;20104;-53
2021/08/21 04:55:46;;;;;;;3.80;1.45;;;;;;;21.78;46.52;99395.19;5033352;28;20124;-49
2021/08/21 04:58:12;;;;;;;2.53;1.60;;;;;;;21.79;46.10;99375.09;5032912;28;20037;-54
2021/08/21 05:00:37;;;;;;;3.97;1.52;;;;;;;21.97;45.85;99390.81;5035470;28;20052;-50
2021/08/21 05:03:02;;;;;;;4.60;1.80;;;;;;;22.07;45.49;99388.50;5040655;28;20036;-56
2021/08/21 05:05:30;;;;;;;2.63;1.67;;;;;;;22.23;45.66;99384.50;5032058;28;20380;-54
2021/08/21 05:07:55;;;;;;;3.28;1.80;;;;;;;22.39;44.87;99390.56;5033301;28;20036;-56
2021/08/21 05:10:21;;;;;;;3.55;1.38;;;;;;;22.54;44.99;99389.53;5033913;28;20060;-53
2021/08/21 05:12:46;;;;;;;3.67;1.50;;;;;;;22.67;44.34;99394.09;5033203;28;20025;-54
2021/08/21 05:15:13;;;;;;;2.40;1.70;;;;;;;22.76;44.28;99392.81;5033527;28;20084;-60
2021/08/21 05:17:39;;;;;;;3.20;1.70;;;;;;;22.72;44.24;99394.28;5033070;28;20069;-51
2021/08/21 05:20:15;;;;;;;6.20;1.80;;;;;;;22.82;44.04;99399.31;5032721;28;20511;-50
2021/08/21 05:25:15;;;;;;;3.42;1.50;;;;;;;23.21;43.38;99395.56;5032991;28;20080;-49
2021/08/21 05:27:40;;;;;;;4.05;1.77;;;;;;;23.27;42.63;99393.91;5033667;28;20461;-50
2021/08/21 05:30:07;;;;;;;2.05;1.60;;;;;;;23.33;43.02;99393.03;5032942;28;20064;-50
2021/08/21 05:32:35;;;;;;;1.52;1.42;;;;;;;23.39;43.15;99387.72;5032714;28;20140;-53
2021/08/21 05:35:00;;;;;;;3.75;1.52;;;;;;;23.47;42.76;99382.84;5051066;28;20037;-51
2021/08/21 05:37:26;;;;;;;3.20;1.40;;;;;;;23.82;41.80;99388.94;5052712;28;20025;-53
2021/08/21 05:39:52;;;;;;;2.72;1.88;;;;;;;24.00;41.34;99388.16;5053259;28;20032;-51
2021/08/21 05:42:18;;;;;;;3.40;1.60;;;;;;;24.18;41.03;99382.78;5052451;28;20029;-53
2021/08/21 05:44:43;;;;;;;2.45;1.65;;;;;;;24.25;40.73;99379.13;5052108;28;20032;-58
2021/08/21 05:47:08;;;;;;;2.00;1.73;;;;;;;24.43;40.66;99387.38;5036876;28;20119;-51
2021/08/21 05:49:34;;;;;;;2.58;1.45;;;;;;;24.74;39.79;99391.03;5032599;28;20052;-49
2021/08/21 05:51:59;;;;;;;3.28;1.63;;;;;;;25.17;39.19;99388.44;5032129;28;20195;-52
2021/08/21 05:54:25;;;;;;;3.33;1.45;;;;;;;25.40;38.54;99384.13;5032109;28;20029;-51
2021/08/21 05:56:51;;;;;;;3.60;1.70;;;;;;;25.65;37.98;99384.00;5032549;28;20548;-52
2021/08/21 05:59:16;;;;;;;4.10;1.30;;;;;;;26.06;37.63;99389.69;5033523;28;20414;-51
2021/08/21 06:01:42;;;;;;;2.55;1.52;;;;;;;26.54;36.29;99396.03;5032219;28;20025;-53
2021/08/21 06:04:07;;;;;;;2.30;1.80;;;;;;;26.97;35.69;99390.38;5031963;28;20041;-49
2021/08/21 06:06:34;;;;;;;3.30;1.90;;;;;;;27.13;34.96;99397.88;5032385;28;20402;-54
2021/08/21 06:08:59;;;;;;;5.05;1.50;;;;;;;27.25;34.95;99391.50;5032344;28;20476;-51
2021/08/21 06:11:25;;;;;;;3.40;1.85;;;;;;;27.35;34.69;99388.91;5032986;28;20029;-54
2021/08/21 06:13:50;;;;;;;2.33;1.50;;;;;;;27.46;35.08;99392.69;5032071;28;20378;-53
2021/08/21 06:16:15;;;;;;;4.45;1.80;;;;;;;27.53;34.28;99390.69;5032379;28;20454;-60
2021/08/21 06:18:41;;;;;;;3.03;1.67;;;;;;;27.88;33.83;99386.06;5032854;28;20029;-53
2021/08/21 06:21:06;;;;;;;6.07;1.80;;;;;;;28.31;33.25;99367.22;5032019;28;20025;-51
2021/08/21 06:23:32;;;;;;;3.50;1.83;;;;;;;28.96;32.27;99384.09;5032405;28;20104;-57
2021/08/21 06:25:57;;;;;;;2.95;1.90;;;;;;;29.32;31.48;99381.72;5031763;28;20168;-55
2021/08/21 06:28:23;;;;;;;1.67;1.58;;;;;;;29.57;30.89;99376.78;5031630;28;20052;-52
2021/08/21 06:30:48;;;;;;;3.65;1.70;;;;;;;29.74;30.54;99382.97;5031088;28;20107;-58
2021/08/21 06:33:14;;;;;;;6.03;2.00;;;;;;;29.68;30.56;99378.53;5031691;28;20099;-52
2021/08/21 06:35:39;;;;;;;1.75;1.40;;;;;;;29.70;30.79;99370.00;5031742;28;20497;-54
2021/08/21 06:38:05;;;;;;;5.10;1.80;;;;;;;29.71;30.75;99380.75;5051564;28;20379;-54
2021/08/21 06:40:30;;;;;;;5.45;1.70;;;;;;;29.51;31.04;99356.59;5050773;28;20021;-54
2021/08/21 06:42:55;;;;;;;3.53;1.52;;;;;;;29.70;30.79;99379.09;5051045;28;20036;-57
2021/08/21 06:45:21;;;;;;;4.78;1.80;;;;;;;29.55;30.96;99373.44;5050962;28;20103;-53
2021/08/21 06:47:46;;;;;;;2.25;1.95;;;;;;;29.47;30.77;99372.00;5048642;28;20025;-49
2021/08/21 06:50:12;;;;;;;2.10;1.85;;;;;;;29.03;31.42;99368.19;5031897;28;20072;-55
2021/08/21 06:52:37;;;;;;;3.63;1.60;;;;;;;28.93;31.75;99363.38;5046774;28;20041;-53
2021/08/21 06:55:04;;;;;;;3.97;1.77;;;;;;;29.17;31.56;99384.31;5050686;28;20516;-54
2021/08/21 06:57:30;;;;;;;3.33;1.83;;;;;;;29.26;30.98;99382.78;5051237;28;20028;-55
2021/08/21 06:59:57;;;;;;;3.22;1.90;;;;;;;29.50;31.03;99385.25;5050606;28;20028;-52
2021/08/21 07:02:24;;;;;;;4.47;1.50;;;;;;;29.91;30.58;99388.41;5049379;28;20083;-54
2021/08/21 07:04:49;;;;;;;6.38;2.08;;;;;;;30.19;29.76;99377.28;5050903;28;20085;-49
2021/08/21 07:07:15;;;;;;;2.50;1.70;;;;;;;30.30;29.64;99379.03;5050998;28;20033;-52
2021/08/21 07:09:40;;;;;;;4.53;1.80;;;;;;;30.38;29.51;99379.63;5051046;28;20040;-50
2021/08/21 07:12:06;;;;;;;4.82;1.92;;;;;;;30.22;29.64;99355.53;5042590;28;20017;-53
2021/08/21 07:14:31;;;;;;;4.03;1.90;;;;;;;30.38;29.33;99377.69;5028973;28;20346;-53
2021/08/21 07:16:57;;;;;;;2.60;1.85;;;;;;;31.06;28.50;99365.06;5030898;28;20133;-54
2021/08/21 07:19:22;;;;;;;2.97;1.75;;;;;;;31.99;27.20;99361.63;5030903;28;20112;-52
2021/08/21 07:21:52;;;;;;;2.40;1.77;;;;;;;32.73;25.78;99358.44;5032178;28;20095;-55
2021/08/21 07:24:19;;;;;;;3.03;1.58;;;;;;;32.55;26.58;99357.94;5030813;28;20033;-55
2021/08/21 07:26:44;;;;;;;4.72;1.67;;;;;;;32.55;26.01;99362.63;5029794;28;20112;-54
2021/08/21 07:29:10;;;;;;;3.60;1.70;;;;;;;33.15;26.00;99361.88;5030370;28;20105;-54
2021/08/21 07:31:35;;;;;;;3.40;1.80;;;;;;;34.06;24.19;99360.69;5030820;28;20128;-53
2021/08/21 07:34:01;;;;;;;3.42;2.08;;;;;;;34.30;23.86;99371.00;5032054;28;20131;-54
2021/08/21 07:36:26;;;;;;;5.97;1.90;;;;;;;33.90;24.52;99362.75;5031118;28;20051;-56
2021/08/21 07:38:52;;;;;;;4.80;1.90;;;;;;;33.48;25.48;99373.34;5029224;28;20104;-52
2021/08/21 07:41:18;;;;;;;3.63;1.70;;;;;;;33.27;25.72;99387.31;5031107;28;20029;-56
2021/08/21 07:43:43;;;;;;;5.93;2.28;;;;;;;32.93;25.98;99372.25;5032068;28;20017;-57
2021/08/21 07:46:09;;;;;;;4.22;2.03;;;;;;;32.94;25.76;99378.59;5031815;28;20033;-57
2021/08/21 07:48:34;;;;;;;5.97;2.05;;;;;;;32.64;25.96;99374.81;5037194;28;20072;-56
2021/08/21 07:51:00;;;;;;;6.85;1.83;;;;;;;31.82;26.96;99367.44;5034245;28;20029;-58
2021/08/21 07:53:25;;;;;;;3.45;2.03;;;;;;;30.84;29.00;99388.19;5035593;28;20047;-50
2021/08/21 07:55:51;;;;;;;4.88;2.22;;;;;;;30.01;30.23;99362.81;5052078;28;20029;-63
2021/08/21 07:58:16;;;;;;;5.47;2.10;;;;;;;29.61;31.44;99375.16;5054078;28;20025;-52
2021/08/21 08:00:42;;;;;;;4.22;2.05;;;;;;;29.06;31.95;99375.94;5053767;28;20062;-57
2021/08/21 08:03:12;;;;;;;4.68;2.28;;;;;;;28.63;33.17;99375.66;5054874;28;20079;-51
2021/08/21 08:05:38;;;;;;;2.53;1.90;;;;;;;28.24;33.74;99377.56;5041887;28;20029;-57
2021/08/21 08:08:04;;;;;;;4.78;2.25;;;;;;;27.90;34.05;99381.97;5033913;28;20386;-52
2021/08/21 08:10:29;;;;;;;2.75;2.13;;;;;;;27.54;35.06;99386.84;5033850;28;20124;-51
2021/08/21 08:12:54;;;;;;;6.57;2.50;;;;;;;27.13;35.60;99375.91;5034453;28;20030;-51
2021/08/21 08:15:20;;;;;;;7.75;2.25;;;;;;;26.74;36.30;99383.84;5035575;28;20037;-51
2021/08/21 08:17:45;;;;;;;4.00;2.30;;;;;;;26.47;37.03;99403.56;5033947;28;20095;-56
2021/08/21 08:20:12;;;;;;;4.55;2.47;;;;;;;26.29;38.21;99410.84;5033770;28;20124;-53
2021/08/21 08:22:38;;;;;;;2.83;1.92;;;;;;;26.11;37.79;99402.69;5032773;28;20026;-53
2021/08/21 08:25:04;;;;;;;5.80;2.05;;;;;;;25.86;38.84;99404.56;5035046;28;20381;-56
2021/08/21 08:27:29;;;;;;;6.22;2.55;;;;;;;25.81;39.18;99404.44;5032863;28;20501;-64
2021/08/21 08:29:55;;;;;;;4.65;2.50;;;;;;;25.81;38.65;99393.47;5035923;28;20147;-65
2021/08/21 08:32:20;;;;;;;9.02;2.20;;;;;;;25.61;39.34;99378.16;5033249;28;20115;-63
2021/08/21 08:34:46;;;;;;;6.90;2.30;;;;;;;25.77;39.49;99404.06;5033275;28;20040;-64
2021/08/21 08:37:12;;;;;;;3.78;1.92;;;;;;;25.77;38.98;99397.72;5033655;28;20084;-61
2021/08/21 08:39:39;;;;;;;6.57;2.25;;;;;;;25.62;39.76;99407.25;5032391;28;20029;-62
2021/08/21 08:42:10;;;;;;;3.60;2.10;;;;;;;25.53;40.32;99407.81;5032488;28;20087;-63
2021/08/21 08:44:41;;;;;;;7.35;2.42;;;;;;;25.42;40.09;99407.47;5032016;28;20120;-61
2021/08/21 08:47:08;;;;;;;6.97;2.50;;;;;;;25.16;40.36;99384.03;5039005;28;20094;-62
2021/08/21 08:49:34;;;;;;;4.80;2.50;;;;;;;25.21;40.24;99396.00;5052035;28;20078;-61
2021/08/21 08:52:00;;;;;;;7.00;2.10;;;;;;;25.17;40.37;99399.41;5052477;28;20041;-61
2021/08/21 08:54:25;;;;;;;5.90;2.40;;;;;;;25.16;41.38;99404.03;5051929;28;20480;-61
2021/08/21 08:56:51;;;;;;;6.85;2.45;;;;;;;25.20;40.50;99404.44;5050514;28;20021;-62
2021/08/21 08:59:16;;;;;;;6.25;2.63;;;;;;;25.17;40.51;99397.50;5051469;28;20040;-61
2021/08/21 09:01:42;;;;;;;5.38;2.58;;;;;;;25.30;40.89;99403.88;5052135;28;20135;-66
2021/08/21 09:04:14;;;;;;;4.75;2.38;;;;;;;25.49;40.23;99396.47;5052056;28;20028;-63
2021/08/21 09:06:40;;;;;;;4.35;2.33;;;;;;;25.50;39.87;99392.66;5050756;28;20457;-64
2021/08/21 09:09:16;;;;;;;4.60;2.42;;;;;;;25.81;39.74;99398.97;5049952;28;20094;-63
2021/08/21 09:11:46;;;;;;;5.07;2.50;;;;;;;25.83;40.52;99410.53;5051877;28;20120;-63
2021/08/21 09:14:19;;;;;;;3.67;2.25;;;;;;;25.89;40.50;99404.09;5051786;28;20025;-61
2021/08/21 09:16:45;;;;;;;4.53;2.33;;;;;;;25.74;41.22;99385.34;5051448;28;20068;-68
2021/08/21 09:19:11;;;;;;;3.17;1.90;;;;;;;26.02;42.15;99402.19;5021951;28;20053;-62
2021/08/21 09:22:02;;;;;;;4.15;2.10;;;;;;;26.23;40.93;99385.19;5033199;28;20101;-62
2021/08/21 09:24:27;;;;;;;6.47;2.50;;;;;;;26.37;39.81;99405.00;5031229;28;20045;-64
2021/08/21 09:26:52;;;;;;;5.25;2.40;;;;;;;26.56;40.77;99418.59;5032973;28;20065;-65
2021/08/21 09:29:27;;;;;;;2.75;2.30;;;;;;;26.84;39.68;99430.72;5039586;28;20244;-62
2021/08/21 09:32:05;;;;;;;8.55;2.58;;;;;;;26.78;38.67;99423.47;5053173;28;20053;-61
2021/08/21 09:34:30;;;;;;;5.07;2.30;;;;;;;26.45;39.83;99424.94;5041775;28;20482;-61
2021/08/21 09:36:56;;;;;;;4.43;2.45;;;;;;;26.42;39.49;99420.75;5044556;28;20476;-65
2021/08/21 09:39:37;;;;;;;4.28;2.53;;;;;;;26.61;38.82;99415.13;5043111;28;20029;-57
2021/08/21 09:42:05;;;;;;;7.35;2.63;;;;;;;26.34;39.00;99397.25;5052586;28;20028;-59
2021/08/21 09:44:43;;;;;;;6.65;2.70;;;;;;;26.55;38.67;99429.84;5051575;28;20495;-54
2021/08/21 09:47:20;;;;;;;3.78;2.15;;;;;;;26.62;39.16;99420.38;5050138;28;20073;-57
2021/08/21 09:49:46;;;;;;;5.55;1.95;;;;;;;26.49;38.96;99434.34;5048078;28;20037;-58
2021/08/21 09:52:16;;;;;;;5.93;2.50;;;;;;;26.58;39.37;99445.81;5052403;28;20060;-58
2021/08/21 09:54:45;;;;;;;4.53;2.20;;;;;;;26.49;39.65;99440.66;5051831;28;20025;-55
2021/08/21 09:57:13;;;;;;;3.92;2.03;;;;;;;26.39;39.64;99436.84;5052331;28;20117;-59
2021/08/21 09:59:39;;;;;;;5.43;1.98;;;;;;;26.18;39.29;99437.19;5050615;28;20035;-55
2021/08/21 10:02:09;;;;;;;4.82;2.33;;;;;;;26.16;39.57;99444.84;5052036;28;20047;-55
2021/08/21 10:04:36;;;;;;;5.68;2.33;;;;;;;26.00;39.77;99440.84;5051736;28;20086;-56
2021/08/21 10:07:07;;;;;;;6.85;2.65;;;;;;;25.80;39.21;99435.66;5052120;28;20033;-53
2021/08/21 10:09:37;;;;;;;6.32;2.60;;;;;;;25.62;39.88;99440.16;5048904;28;20477;-52
2021/08/21 10:12:04;;;;;;;6.50;2.33;;;;;;;25.41;40.08;99432.41;5052427;28;20457;-58
2021/08/21 10:14:30;;;;;;;4.65;2.50;;;;;;;25.18;40.42;99431.22;5051428;28;20033;-57
2021/08/21 10:16:55;;;;;;;2.85;2.45;;;;;;;25.10;41.12;99434.28;5052178;28;20040;-53
2021/08/21 10:19:23;;;;;;;4.47;1.98;;;;;;;24.91;40.67;99406.91;5048785;28;20055;-61
2021/08/21 10:21:56;;;;;;;6.88;2.17;;;;;;;25.00;40.68;99435.63;5051736;28;20032;-61
2021/08/21 10:24:37;;;;;;;4.28;2.10;;;;;;;25.30;40.47;99429.34;5051447;28;20029;-60
2021/08/21 10:27:15;;;;;;;9.07;2.50;;;;;;;25.59;39.66;99429.66;5051832;28;20028;-62
2021/08/21 10:30:00;;;;;;;4.00;2.67;;;;;;;25.77;39.56;99426.00;5048111;28;20391;-61
2021/08/21 10:32:34;;;;;;;5.25;2.00;;;;;;;25.78;38.62;99416.69;5051391;28;20051;-60
2021/08/21 10:35:00;;;;;;;3.25;2.30;;;;;;;25.67;38.86;99425.72;5049524;28;20067;-63
2021/08/21 10:37:36;;;;;;;7.85;2.42;;;;;;;25.84;38.94;99433.28;5049746;28;20025;-60
2021/08/21 10:40:34;;;;;;;6.00;2.38;;;;;;;25.93;38.44;99434.63;5051683;28;20025;-61
2021/08/21 10:43:03;;;;;;;7.95;2.40;;;;;;;25.84;38.53;99441.50;5051271;28;20350;-66
2021/08/21 10:45:44;;;;;;;5.32;2.13;;;;;;;26.12;38.00;99429.03;5051225;28;20055;-61
2021/08/21 10:48:21;;;;;;;4.75;2.47;;;;;;;26.14;38.10;99432.38;5051347;28;20507;-61
2021/08/21 10:50:51;;;;;;;5.80;2.05;;;;;;;26.07;38.01;99436.06;5049880;28;20045;-63
2021/08/21 10:53:30;;;;;;;5.97;2.22;;;;;;;26.33;37.72;99433.16;5051863;28;20083;-61
2021/08/21 10:55:58;;;;;;;4.80;2.30;;;;;;;26.16;37.16;99435.72;5050041;28;20362;-61
2021/08/21 10:58:29;;;;;;;4.43;2.38;;;;;;;26.22;37.56;99432.09;5051341;28;20029;-60
2021/08/21 11:01:06;;;;;;;5.55;1.90;;;;;;;26.27;37.41;99453.31;5051587;28;20041;-59
2021/08/21 11:03:32;;;;;;;5.15;2.17;;;;;;;26.37;37.52;99437.91;5050581;28;20495;-61
2021/08/21 11:06:07;;;;;;;6.65;2.15;;;;;;;26.58;36.84;99443.06;5051295;28;20068;-60
2021/08/21 11:08:36;;;;;;;5.07;2.50;;;;;;;26.44;36.80;99434.25;5051654;28;20029;-61
2021/08/21 11:11:07;;;;;;;6.20;2.33;;;;;;;26.53;36.88;99434.72;5051043;28;20029;-64
2021/08/21 11:13:46;;;;;;;4.32;2.10;;;;;;;26.35;36.79;99442.00;5051100;28;20421;-62
2021/08/21 11:16:12;;;;;;;4.50;2.05;;;;;;;25.90;37.17;99433.19;5051278;28;20027;-61
2021/08/21 11:18:49;;;;;;;3.45;2.05;;;;;;;25.83;37.76;99429.72;5051369;28;20060;-60
2021/08/21 11:21:37;;;;;;;6.55;2.00;;;;;;;25.75;37.83;99433.63;5050426;28;20083;-60
2021/08/21 11:24:22;;;;;;;5.07;1.95;;;;;;;25.48;38.57;99428.53;5050905;28;20394;-60
2021/08/21 11:26:48;;;;;;;5.57;2.27;;;;;;;25.18;38.44;99428.47;5051313;28;20055;-63
2021/08/21 11:29:15;;;;;;;5.40;2.03;;;;;;;25.17;38.73;99433.09;5050531;28;20456;-61
2021/08/21 11:31:53;;;;;;;5.72;2.17;;;;;;;25.34;38.58;99430.59;5050408;28;20087;-60
2021/08/21 11:34:19;;;;;;;4.05;2.13;;;;;;;25.24;38.17;99422.06;5051440;28;20045;-60
2021/08/21 11:36:47;;;;;;;7.57;2.50;;;;;;;25.24;38.48;99408.38;5050861;28;20108;-63